This is the latest recevied weather packets stored in our database for station/object CW79215. If no packets are shown the sender has not sent any weather packets the latest 10 day(s).
| Time | Temp. | Humidity | Pressure | Rain* | Wind** | Luminosity | Snow |
|---|---|---|---|---|---|---|---|
| 1777652532 | 21.67° C | 34% | 1025.2 hPa | - | - | - | - |
| 1777651632 | 23.33° C | 30% | 1025.3 hPa | - | - | - | - |
| 1777650732 | 23.33° C | 30% | 1025.2 hPa | - | - | - | - |
| 1777649832 | 23.89° C | 27% | 1025.2 hPa | - | - | - | - |
| 1777648931 | 23.89° C | 29% | 1025.4 hPa | - | - | - | - |
| 1777648031 | 24.44° C | 29% | 1025.5 hPa | - | - | - | - |
| 1777647131 | 24.44° C | 27% | 1025.6 hPa | - | - | - | - |
| 1777646231 | 25.56° C | 26% | 1025.6 hPa | - | - | - | - |
| 1777645331 | 23.89° C | 29% | 1025.8 hPa | - | - | - | - |
| 1777644431 | 24.44° C | 25% | 1025.8 hPa | - | - | - | - |
| 1777643531 | 24.44° C | 23% | 1025.9 hPa | - | - | - | - |
| 1777642631 | 24.44° C | 25% | 1026.2 hPa | - | - | - | - |
| 1777641731 | 24.44° C | 23% | 1026.4 hPa | - | - | - | - |
| 1777640831 | 24.44° C | 25% | 1026.4 hPa | - | - | - | - |
| 1777639931 | 23.89° C | 26% | 1026.5 hPa | - | - | - | - |
| 1777639031 | 23.89° C | 30% | 1026.7 hPa | - | - | - | - |
| 1777638131 | 23.33° C | 27% | 1026.9 hPa | - | - | - | - |
| 1777637230 | 21.67° C | 29% | 1027.2 hPa | - | - | - | - |
| 1777636330 | 22.78° C | 27% | 1027.1 hPa | - | - | - | - |
| 1777635430 | 22.78° C | 25% | 1027.2 hPa | - | - | - | - |
| 1777634530 | 21.67° C | 26% | 1027.4 hPa | - | - | - | - |
| 1777633630 | 21.11° C | 28% | 1027.5 hPa | - | - | - | - |
| 1777632730 | 20.56° C | 27% | 1027.8 hPa | - | - | - | - |
| 1777631830 | 20.56° C | 27% | 1027.8 hPa | - | - | - | - |
| 1777630930 | 20.56° C | 26% | 1028 hPa | - | - | - | - |
* Rain since midnight (hover to see other rain measurements)
** Current wind speed in m/s (hover to see current wind gust speed)